Time;durP1;ratioP1;P1;durP2;ratioP2;P2;SDS_P1;SDS_P2;PMS_P1;PMS_P2;Temp;Humidity;BMP_temperature;BMP_pressure;BME280_temperature;BME280_humidity;BME280_pressure;Samples;Min_cycle;Max_cycle;Signal;HPM_P1;HPM_P2
2022/09/25 00:02:30;;;;;;;20.70;12.70;;;;;;;10.34;57.86;100000.71;106243;1273;109056;-71
2022/09/25 00:05:02;;;;;;;17.80;13.10;;;;;;;10.30;57.97;99999.48;106048;1273;140204;-71
2022/09/25 00:07:34;;;;;;;18.70;13.80;;;;;;;10.26;58.19;99999.27;106171;1273;97955;-71
2022/09/25 00:10:08;;;;;;;19.80;13.90;;;;;;;10.24;58.27;99997.79;106183;1273;112882;-71
2022/09/25 00:12:41;;;;;;;19.60;13.50;;;;;;;10.22;58.30;99994.34;106107;1273;138715;-71
2022/09/25 00:15:13;;;;;;;25.10;14.10;;;;;;;10.20;58.41;99995.08;106209;1273;108702;-71
2022/09/25 00:17:45;;;;;;;22.00;14.50;;;;;;;10.18;58.49;99993.25;106150;1273;138655;-71
2022/09/25 00:20:22;;;;;;;25.50;15.60;;;;;;;10.16;58.61;99995.58;106217;1271;97838;-71
2022/09/25 00:22:55;;;;;;;21.10;15.30;;;;;;;10.12;58.76;99993.45;105946;1273;138743;-72
2022/09/25 00:25:27;;;;;;;22.30;15.10;;;;;;;10.08;58.81;99989.44;106217;1273;107933;-71
2022/09/25 00:27:59;;;;;;;23.00;14.80;;;;;;;10.05;59.00;99994.92;106175;1273;106234;-71
2022/09/25 00:30:31;;;;;;;25.50;15.00;;;;;;;10.02;59.13;99995.36;106011;1271;138866;-71
2022/09/25 00:33:04;;;;;;;21.50;13.90;;;;;;;9.98;59.19;99997.23;106167;1273;97962;-70
2022/09/25 00:35:36;;;;;;;21.90;14.70;;;;;;;9.94;59.33;99994.95;106070;1271;151808;-71
2022/09/25 00:38:08;;;;;;;21.20;13.90;;;;;;;9.90;59.43;99993.34;106237;1272;108929;-70
2022/09/25 00:40:41;;;;;;;22.00;14.90;;;;;;;9.86;59.43;99990.67;106100;1273;140520;-71
2022/09/25 00:43:16;;;;;;;21.10;15.10;;;;;;;9.81;59.44;99985.30;106236;1272;97840;-71
2022/09/25 00:45:48;;;;;;;22.20;14.70;;;;;;;9.77;59.64;99984.39;106231;1273;97852;-71
2022/09/25 00:48:21;;;;;;;21.20;15.30;;;;;;;9.73;59.81;99979.51;106099;1273;138363;-72
2022/09/25 00:50:56;;;;;;;20.30;14.90;;;;;;;9.68;59.91;99979.80;106259;1273;106417;-71
2022/09/25 00:53:31;;;;;;;22.60;15.80;;;;;;;9.64;60.09;99977.33;106076;1273;138679;-71
2022/09/25 00:56:05;;;;;;;21.70;15.60;;;;;;;9.60;60.21;99977.46;106171;1273;97841;-70
2022/09/25 00:58:40;;;;;;;22.40;15.20;;;;;;;9.57;60.36;99977.92;106097;1273;138518;-72
2022/09/25 01:01:13;;;;;;;25.10;16.20;;;;;;;9.55;60.37;99978.70;106166;1273;112506;-72
2022/09/25 01:03:45;;;;;;;23.10;16.20;;;;;;;9.53;60.65;99982.77;106166;1273;109392;-72
2022/09/25 01:06:18;;;;;;;22.40;16.50;;;;;;;9.50;60.70;99983.52;106055;1271;139702;-71
2022/09/25 01:11:33;;;;;;;21.50;15.70;;;;;;;9.47;60.87;99978.08;102558;1312;635684;-70
2022/09/25 01:14:09;;;;;;;22.00;15.60;;;;;;;9.42;60.82;99981.52;105139;1286;94820;-70
2022/09/25 01:16:46;;;;;;;26.50;16.70;;;;;;;9.40;60.90;99983.16;104986;1286;140579;-70
2022/09/25 01:19:37;;;;;;;25.60;16.40;;;;;;;9.38;60.90;99984.10;105062;1286;108507;-70
2022/09/25 01:22:21;;;;;;;24.20;16.50;;;;;;;9.37;61.05;99978.06;105097;1286;107372;-71
2022/09/25 01:25:10;;;;;;;24.50;16.80;;;;;;;9.34;61.09;99976.23;104912;1284;190640;-70
2022/09/25 01:27:52;;;;;;;23.00;16.60;;;;;;;9.31;61.13;99972.69;105295;1284;94496;-72
2022/09/25 01:30:24;;;;;;;25.80;16.70;;;;;;;9.27;61.26;99974.88;105228;1284;137513;-72
2022/09/25 01:33:04;;;;;;;23.70;17.00;;;;;;;9.25;61.26;99973.05;105982;1278;108237;-72
2022/09/25 01:35:43;;;;;;;24.60;16.50;;;;;;;9.24;61.33;99972.39;105826;1278;137862;-73
2022/09/25 01:38:27;;;;;;;20.90;15.80;;;;;;;9.23;61.26;99969.13;105957;1278;109239;-73
2022/09/25 01:41:05;;;;;;;24.30;16.00;;;;;;;9.24;61.30;99969.95;105847;1278;139445;-70
2022/09/25 01:43:41;;;;;;;22.00;16.30;;;;;;;9.25;61.27;99969.23;105888;1278;95155;-70
2022/09/25 01:46:19;;;;;;;22.10;16.00;;;;;;;9.25;61.23;99969.57;105903;1277;107323;-70
2022/09/25 01:48:55;;;;;;;23.90;16.40;;;;;;;9.26;61.20;99968.17;105840;1278;137988;-70
2022/09/25 01:51:32;;;;;;;21.20;16.10;;;;;;;9.26;61.33;99965.89;105918;1277;108894;-70
2022/09/25 01:54:11;;;;;;;26.30;17.70;;;;;;;9.27;61.29;99962.73;105803;1278;137847;-71
2022/09/25 01:56:50;;;;;;;20.20;15.60;;;;;;;9.27;61.24;99963.45;105872;1278;95009;-71
2022/09/25 01:59:30;;;;;;;23.70;16.10;;;;;;;9.28;61.16;99962.20;105851;1276;137958;-72
2022/09/25 02:02:05;;;;;;;23.30;16.80;;;;;;;9.27;61.22;99959.09;106231;1267;109466;-71
2022/09/25 02:04:42;;;;;;;24.90;17.60;;;;;;;9.27;61.35;99958.58;105643;1276;138212;-71
2022/09/25 02:07:21;;;;;;;23.40;16.50;;;;;;;9.26;61.34;99958.95;105761;1279;95137;-71
2022/09/25 02:09:56;;;;;;;25.00;17.20;;;;;;;9.26;61.44;99964.00;105887;1279;95143;-72
2022/09/25 02:12:34;;;;;;;26.80;18.30;;;;;;;9.25;61.37;99958.83;105721;1279;138401;-71
2022/09/25 02:15:11;;;;;;;26.20;18.90;;;;;;;9.24;61.52;99956.61;105844;1278;108949;-71
2022/09/25 02:20:42;;;;;;;27.30;18.00;;;;;;;9.19;61.60;99957.11;105843;1278;95170;-71
2022/09/25 02:23:23;;;;;;;28.50;19.20;;;;;;;9.18;61.58;99952.80;105815;1278;136975;-71
2022/09/25 02:26:01;;;;;;;32.70;20.60;;;;;;;9.17;61.63;99948.86;105945;1279;107669;-71
2022/09/25 02:28:34;;;;;;;27.70;20.20;;;;;;;9.16;61.80;99940.91;105789;1279;138964;-71
2022/09/25 02:31:12;;;;;;;29.20;20.50;;;;;;;9.14;61.90;99937.31;105927;1278;108911;-71
2022/09/25 02:33:44;;;;;;;31.40;19.60;;;;;;;9.10;61.87;99938.64;106152;1273;95142;-71
2022/09/25 02:36:20;;;;;;;28.90;20.40;;;;;;;9.07;61.95;99934.57;106050;1273;137510;-70
2022/09/25 02:38:55;;;;;;;27.50;19.30;;;;;;;9.04;61.92;99932.23;106049;1274;109734;-71
2022/09/25 02:41:46;;;;;;;29.00;18.70;;;;;;;9.03;61.94;99929.85;106064;1273;138675;-70
2022/09/25 02:44:31;;;;;;;27.50;19.10;;;;;;;9.01;61.87;99932.17;106117;1273;108815;-71
2022/09/25 02:47:14;;;;;;;29.80;18.50;;;;;;;8.98;62.04;99929.48;106031;1273;138751;-72
2022/09/25 02:49:54;;;;;;;26.10;18.40;;;;;;;8.97;62.15;99935.05;106093;1274;95168;-71
2022/09/25 02:52:35;;;;;;;27.40;18.60;;;;;;;8.94;62.26;99929.76;106174;1273;109767;-71
2022/09/25 02:55:12;;;;;;;29.30;18.40;;;;;;;8.93;62.31;99932.76;106173;1273;108904;-71
2022/09/25 02:57:51;;;;;;;25.90;18.60;;;;;;;8.91;62.38;99925.70;106051;1274;108561;-71
2022/09/25 03:00:23;;;;;;;25.80;18.80;;;;;;;8.90;62.47;99925.40;105996;1273;137800;-71
2022/09/25 03:03:02;;;;;;;27.20;18.90;;;;;;;8.87;62.50;99924.10;106065;1273;95167;-71
2022/09/25 03:05:36;;;;;;;29.80;21.10;;;;;;;8.86;62.62;99925.16;105987;1275;137549;-71
2022/09/25 03:10:59;;;;;;;28.70;20.60;;;;;;;8.79;62.92;99922.25;105934;1274;137886;-71
2022/09/25 03:13:33;;;;;;;32.40;21.90;;;;;;;8.72;62.94;99925.05;106045;1274;95146;-71
2022/09/25 03:16:09;;;;;;;33.40;22.70;;;;;;;8.65;63.11;99930.48;106160;1274;95201;-70
2022/09/25 03:18:41;;;;;;;33.90;22.50;;;;;;;8.58;63.23;99933.96;106028;1274;137757;-70
2022/09/25 03:21:13;;;;;;;33.40;22.70;;;;;;;8.52;63.43;99929.14;106011;1276;109328;-71
2022/09/25 03:23:45;;;;;;;33.30;22.00;;;;;;;8.45;63.58;99925.67;105979;1275;137653;-71
2022/09/25 03:26:18;;;;;;;32.60;23.10;;;;;;;8.39;63.72;99923.75;106058;1276;95136;-71
2022/09/25 03:28:50;;;;;;;32.70;24.00;;;;;;;8.33;63.97;99923.75;105970;1275;137738;-71
2022/09/25 03:31:22;;;;;;;35.40;24.70;;;;;;;8.28;64.07;99919.73;106140;1274;108575;-71
2022/09/25 03:33:54;;;;;;;36.70;24.20;;;;;;;8.22;64.29;99922.99;106077;1276;109746;-70
2022/09/25 03:36:29;;;;;;;34.40;23.80;;;;;;;8.16;64.46;99921.27;105962;1275;137869;-71
2022/09/25 03:39:01;;;;;;;36.10;23.00;;;;;;;8.12;64.55;99921.39;106001;1276;95174;-71
2022/09/25 03:41:34;;;;;;;33.80;23.00;;;;;;;8.09;64.63;99926.83;105952;1276;137564;-71
2022/09/25 03:44:06;;;;;;;33.50;23.80;;;;;;;8.07;64.91;99929.64;105975;1276;109931;-70
2022/09/25 03:46:39;;;;;;;34.60;23.70;;;;;;;8.06;64.88;99934.66;105865;1275;138028;-71
2022/09/25 03:49:11;;;;;;;34.00;23.70;;;;;;;8.05;65.03;99935.74;105916;1275;106763;-71
2022/09/25 03:51:44;;;;;;;36.20;23.90;;;;;;;8.04;65.05;99933.72;105996;1275;95355;-71
2022/09/25 03:54:16;;;;;;;33.50;23.00;;;;;;;8.03;65.08;99929.76;105866;1275;137883;-71
2022/09/25 03:56:48;;;;;;;34.70;23.60;;;;;;;8.02;65.09;99926.65;105973;1276;109680;-71
2022/09/25 03:59:20;;;;;;;37.30;24.40;;;;;;;8.02;65.15;99917.82;105999;1274;138636;-70
2022/09/25 04:01:52;;;;;;;37.10;24.10;;;;;;;8.03;65.27;99921.44;106045;1274;108787;-71
2022/09/25 04:04:25;;;;;;;32.10;22.80;;;;;;;8.03;65.22;99927.33;106012;1275;95186;-71
2022/09/25 04:06:57;;;;;;;32.20;22.20;;;;;;;8.02;65.38;99929.96;105861;1275;137482;-71
2022/09/25 04:09:30;;;;;;;34.90;24.10;;;;;;;8.01;65.39;99934.31;106054;1275;109872;-71
2022/09/25 04:12:06;;;;;;;35.90;23.60;;;;;;;8.00;65.54;99935.39;106042;1276;138537;-71
2022/09/25 04:14:38;;;;;;;34.00;24.10;;;;;;;7.98;65.51;99934.55;106083;1274;108824;-70
2022/09/25 04:17:11;;;;;;;39.40;25.30;;;;;;;7.97;65.62;99934.96;105911;1276;138084;-70
2022/09/25 04:19:43;;;;;;;36.00;24.10;;;;;;;7.95;65.74;99935.36;105999;1275;95143;-71
2022/09/25 04:22:15;;;;;;;32.10;23.60;;;;;;;7.94;65.84;99933.64;106377;1276;109753;-71
2022/09/25 04:24:50;;;;;;;34.20;24.10;;;;;;;7.92;65.68;99931.61;107575;1274;138456;-71
2022/09/25 04:27:23;;;;;;;33.80;24.70;;;;;;;7.92;65.64;99929.20;106578;1274;109138;-71
2022/09/25 04:29:56;;;;;;;35.30;23.60;;;;;;;7.92;65.82;99925.55;106038;1274;139066;-71
2022/09/25 04:35:18;;;;;;;33.60;22.50;;;;;;;7.96;65.70;99927.71;106000;1274;137856;-71
2022/09/25 04:37:50;;;;;;;32.40;22.60;;;;;;;8.00;65.77;99924.13;106117;1276;109350;-71
2022/09/25 04:40:22;;;;;;;31.60;23.10;;;;;;;8.06;65.59;99921.73;105991;1276;108956;-71
2022/09/25 04:42:58;;;;;;;33.00;23.00;;;;;;;8.13;65.52;99917.71;106027;1275;137892;-71
2022/09/25 04:45:33;;;;;;;35.30;23.10;;;;;;;8.21;65.41;99919.90;106251;1274;95207;-71
2022/09/25 04:48:06;;;;;;;31.70;22.20;;;;;;;8.30;65.48;99919.66;105923;1276;137943;-71
2022/09/25 04:50:38;;;;;;;32.90;22.40;;;;;;;8.40;65.22;99915.95;105952;1276;105664;-71
2022/09/25 04:53:11;;;;;;;31.10;21.70;;;;;;;8.51;65.10;99915.64;106003;1274;138275;-71
2022/09/25 04:55:45;;;;;;;29.80;21.60;;;;;;;8.63;64.87;99910.98;106148;1274;95202;-71
2022/09/25 04:58:17;;;;;;;30.10;21.40;;;;;;;8.74;64.58;99910.09;105990;1276;95273;-71
2022/09/25 05:00:49;;;;;;;29.20;21.10;;;;;;;8.83;64.33;99908.80;105895;1276;137803;-71
2022/09/25 05:03:22;;;;;;;29.70;21.10;;;;;;;8.89;64.19;99907.58;106064;1274;107794;-73
2022/09/25 05:05:54;;;;;;;27.20;19.90;;;;;;;8.94;63.98;99904.10;105962;1274;137896;-73
2022/09/25 05:08:26;;;;;;;30.40;21.40;;;;;;;9.01;63.81;99901.83;105978;1274;95116;-73
2022/09/25 05:10:58;;;;;;;28.70;20.40;;;;;;;9.11;63.65;99900.62;105922;1274;138021;-73
2022/09/25 05:13:31;;;;;;;27.80;21.10;;;;;;;9.28;63.48;99898.69;106114;1274;109313;-72
2022/09/25 05:16:03;;;;;;;31.10;20.30;;;;;;;9.53;63.26;99902.91;106015;1274;107768;-72
2022/09/25 05:18:36;;;;;;;25.50;19.00;;;;;;;9.82;62.81;99912.67;106015;1274;138240;-72
2022/09/25 05:21:08;;;;;;;27.70;20.30;;;;;;;10.05;62.20;99908.92;106064;1274;95949;-72
2022/09/25 05:23:41;;;;;;;27.60;20.20;;;;;;;10.21;61.71;99909.77;105981;1274;138029;-72
2022/09/25 05:26:13;;;;;;;30.10;21.50;;;;;;;10.26;61.46;99914.45;106919;1274;110205;-70
2022/09/25 05:28:49;;;;;;;28.80;19.90;;;;;;;10.34;61.15;99912.79;107562;1274;139213;-70
2022/09/25 05:31:21;;;;;;;24.60;18.80;;;;;;;10.62;61.02;99910.88;107616;1274;108007;-70
2022/09/25 05:33:54;;;;;;;27.00;19.20;;;;;;;11.21;60.34;99911.88;107612;1274;94721;-71
2022/09/25 05:36:27;;;;;;;28.20;19.60;;;;;;;11.71;59.49;99918.18;107533;1274;138133;-70
2022/09/25 05:39:00;;;;;;;25.20;18.60;;;;;;;12.13;58.74;99916.42;106332;1274;112229;-70
2022/09/25 05:41:33;;;;;;;28.00;18.50;;;;;;;12.47;57.95;99920.12;106001;1275;138579;-73
2022/09/25 05:44:08;;;;;;;24.50;18.70;;;;;;;12.67;57.47;99919.34;106072;1274;108666;-72
2022/09/25 05:46:41;;;;;;;24.80;19.00;;;;;;;12.88;57.23;99918.40;105923;1274;138497;-72
2022/09/25 05:49:13;;;;;;;26.00;19.20;;;;;;;13.15;56.67;99922.38;106102;1274;96494;-73
2022/09/25 05:51:46;;;;;;;23.40;18.00;;;;;;;13.42;56.10;99924.73;106066;1275;111366;-70
2022/09/25 05:54:19;;;;;;;23.20;18.60;;;;;;;13.75;55.25;99923.45;105918;1274;137806;-71
2022/09/25 05:56:51;;;;;;;27.20;19.00;;;;;;;14.12;54.60;99924.51;105986;1276;108786;-70
2022/09/25 05:59:23;;;;;;;24.50;18.70;;;;;;;14.58;53.90;99919.84;105914;1274;137731;-70
2022/09/25 06:01:55;;;;;;;22.60;17.70;;;;;;;15.05;53.15;99927.77;106126;1274;96698;-71
2022/09/25 06:04:27;;;;;;;25.80;18.80;;;;;;;15.39;52.44;99929.52;106050;1275;111169;-71
2022/09/25 06:07:01;;;;;;;25.20;18.20;;;;;;;15.57;51.60;99928.00;106064;1275;109022;-72
2022/09/25 06:09:33;;;;;;;24.80;18.20;;;;;;;15.71;50.81;99930.71;106135;1275;107659;-71
2022/09/25 06:12:06;;;;;;;24.90;18.10;;;;;;;15.83;50.34;99926.16;106020;1274;138287;-71
2022/09/25 06:14:39;;;;;;;24.60;18.50;;;;;;;15.91;50.10;99930.06;106101;1275;96496;-71
2022/09/25 06:17:13;;;;;;;19.90;17.10;;;;;;;16.23;49.67;99925.16;105984;1274;137697;-70
2022/09/25 06:19:46;;;;;;;24.10;18.10;;;;;;;16.61;48.98;99920.69;106162;1275;109176;-70
2022/09/25 06:22:18;;;;;;;24.90;18.10;;;;;;;17.03;48.24;99919.11;106109;1275;107802;-71
2022/09/25 06:24:50;;;;;;;21.40;17.50;;;;;;;17.51;47.54;99917.75;106045;1274;138516;-70
2022/09/25 06:27:22;;;;;;;22.10;17.70;;;;;;;17.92;47.20;99913.44;106079;1275;96494;-70
2022/09/25 06:29:54;;;;;;;21.10;17.50;;;;;;;18.36;46.57;99911.79;105997;1274;137614;-70
2022/09/25 06:32:26;;;;;;;22.60;16.90;;;;;;;18.80;45.97;99903.11;106075;1274;108783;-71
2022/09/25 06:34:58;;;;;;;22.40;17.00;;;;;;;19.25;45.11;99906.19;105943;1274;137909;-71
2022/09/25 06:37:30;;;;;;;21.90;16.70;;;;;;;19.63;44.43;99903.16;106065;1274;95875;-71
2022/09/25 06:40:03;;;;;;;19.90;16.30;;;;;;;19.90;43.95;99903.96;106124;1274;96537;-71
2022/09/25 06:42:35;;;;;;;18.40;15.50;;;;;;;20.23;43.48;99905.44;105963;1274;138295;-72
2022/09/25 06:45:10;;;;;;;18.80;16.00;;;;;;;20.60;42.75;99904.34;106179;1274;107834;-72
2022/09/25 06:47:42;;;;;;;20.00;15.30;;;;;;;20.95;42.31;99904.13;107554;1274;137929;-72
2022/09/25 06:50:15;;;;;;;18.80;15.10;;;;;;;21.32;41.79;99899.77;106230;1274;96496;-71
2022/09/25 06:52:47;;;;;;;19.20;15.60;;;;;;;21.62;41.40;99895.69;106096;1274;137864;-71
2022/09/25 06:55:19;;;;;;;20.90;15.20;;;;;;;21.88;41.23;99895.23;106140;1275;111313;-69
2022/09/25 06:57:51;;;;;;;21.50;14.80;;;;;;;22.14;41.02;99889.13;106110;1274;108866;-70
2022/09/25 07:00:23;;;;;;;19.60;15.00;;;;;;;22.44;40.94;99884.98;106037;1274;137684;-70
2022/09/25 07:05:47;;;;;;;16.40;13.70;;;;;;;23.15;39.35;99885.21;105989;1274;137569;-70
2022/09/25 07:08:20;;;;;;;15.50;13.30;;;;;;;23.37;38.86;99880.77;106098;1274;111169;-70
2022/09/25 07:10:54;;;;;;;16.90;13.20;;;;;;;23.67;38.67;99878.14;106013;1274;137974;-70
2022/09/25 07:13:30;;;;;;;16.70;12.80;;;;;;;24.12;38.13;99872.17;106114;1274;107817;-71
2022/09/25 07:16:04;;;;;;;17.10;12.90;;;;;;;24.54;37.63;99867.66;106072;1274;96496;-72
2022/09/25 07:18:37;;;;;;;17.40;13.70;;;;;;;25.09;37.34;99865.48;105983;1274;137549;-70
2022/09/25 07:21:11;;;;;;;15.60;13.90;;;;;;;25.80;36.62;99866.70;106009;1276;111018;-72
2022/09/25 07:23:44;;;;;;;17.50;14.00;;;;;;;26.38;35.63;99866.46;105939;1274;137912;-71
2022/09/25 07:26:21;;;;;;;17.00;13.30;;;;;;;26.76;34.56;99866.90;106036;1275;108964;-72
2022/09/25 07:28:57;;;;;;;17.10;12.70;;;;;;;26.96;34.23;99867.04;106310;1274;137855;-72
2022/09/25 07:31:31;;;;;;;15.60;12.90;;;;;;;27.26;33.96;99872.50;106081;1275;96503;-69
2022/09/25 07:34:07;;;;;;;14.20;12.00;;;;;;;27.47;33.73;99871.00;106052;1275;111266;-70
2022/09/25 07:36:42;;;;;;;13.40;12.00;;;;;;;28.02;33.44;99868.91;105982;1274;137939;-70
2022/09/25 07:39:15;;;;;;;13.40;11.70;;;;;;;28.58;33.02;99864.91;106075;1274;108878;-70
2022/09/25 07:41:50;;;;;;;16.70;11.90;;;;;;;29.11;32.28;99865.83;106031;1274;137903;-72
2022/09/25 07:44:22;;;;;;;14.00;11.80;;;;;;;29.53;31.63;99865.20;106117;1274;96374;-71
2022/09/25 07:47:12;;;;;;;14.20;12.10;;;;;;;29.95;31.26;99861.91;105957;1274;138101;-71
2022/09/25 07:49:44;;;;;;;14.90;11.90;;;;;;;30.29;30.28;99861.94;106173;1274;108778;-71
2022/09/25 07:52:17;;;;;;;13.50;11.70;;;;;;;30.42;29.70;99858.55;106027;1274;107785;-71
2022/09/25 07:54:49;;;;;;;13.10;11.60;;;;;;;30.65;29.76;99856.77;105922;1274;137698;-71
2022/09/25 07:57:21;;;;;;;12.10;10.70;;;;;;;30.87;29.58;99851.40;106021;1275;96499;-70
2022/09/25 07:59:53;;;;;;;13.40;10.70;;;;;;;31.20;29.22;99852.64;105955;1274;137663;-71
2022/09/25 08:02:25;;;;;;;11.50;10.00;;;;;;;31.45;29.01;99852.34;106598;1274;106513;-71
2022/09/25 08:04:58;;;;;;;11.90;10.40;;;;;;;31.81;28.90;99854.58;107559;1274;138846;-71
2022/09/25 08:07:30;;;;;;;13.50;9.80;;;;;;;32.13;28.21;99853.73;106905;1274;96525;-70
2022/09/25 08:10:02;;;;;;;10.30;9.10;;;;;;;32.31;27.93;99851.90;106070;1274;96502;-70
2022/09/25 08:12:35;;;;;;;11.50;9.90;;;;;;;32.36;26.95;99849.82;105952;1274;137527;-70
2022/09/25 08:15:10;;;;;;;10.90;9.30;;;;;;;32.10;26.83;99853.61;106112;1274;108909;-70
2022/09/25 08:17:42;;;;;;;12.60;9.70;;;;;;;31.96;26.50;99857.23;105909;1275;137654;-71
2022/09/25 08:20:14;;;;;;;10.90;9.70;;;;;;;31.68;25.83;99858.86;106048;1274;96483;-71
2022/09/25 08:22:47;;;;;;;12.80;10.70;;;;;;;30.81;25.91;99855.08;105994;1274;137415;-71
2022/09/25 08:25:20;;;;;;;13.80;11.20;;;;;;;29.70;26.32;99864.23;106176;1274;110960;-71
2022/09/25 08:27:52;;;;;;;12.90;11.30;;;;;;;28.64;27.15;99861.77;106016;1275;108591;-73
2022/09/25 08:30:24;;;;;;;13.30;11.80;;;;;;;27.72;27.68;99863.74;105963;1274;137652;-71
2022/09/25 08:32:56;;;;;;;15.00;12.70;;;;;;;26.77;28.46;99860.87;106041;1274;96553;-73
2022/09/25 08:35:29;;;;;;;13.50;11.40;;;;;;;26.03;29.30;99863.11;106000;1274;138158;-71
2022/09/25 08:38:01;;;;;;;16.90;11.80;;;;;;;25.25;29.93;99860.54;106038;1276;111134;-71
2022/09/25 08:40:34;;;;;;;13.60;11.60;;;;;;;24.60;30.91;99856.18;106049;1274;107954;-71
2022/09/25 08:43:07;;;;;;;18.30;13.40;;;;;;;24.07;31.59;99860.05;106036;1274;108451;-70
2022/09/25 08:51:34;;;;;;;16.80;12.20;;;;;;;22.86;33.39;99851.45;106801;1274;108682;-70
2022/09/25 08:54:07;;;;;;;14.80;11.70;;;;;;;22.55;34.35;99846.42;105922;1274;137747;-71
2022/09/25 08:56:40;;;;;;;12.80;11.30;;;;;;;22.39;34.56;99846.98;106094;1274;109042;-71
2022/09/25 08:59:25;;;;;;;16.20;11.90;;;;;;;22.44;34.49;99840.50;105910;1275;137768;-71
2022/09/25 09:02:02;;;;;;;14.40;11.80;;;;;;;22.56;34.88;99841.93;106107;1274;96482;-71
2022/09/25 09:04:41;;;;;;;15.80;11.60;;;;;;;22.95;34.84;99842.90;105876;1274;138291;-71
2022/09/25 09:07:19;;;;;;;15.00;11.40;;;;;;;23.34;34.73;99840.08;106074;1274;107785;-70
2022/09/25 09:10:07;;;;;;;14.90;11.80;;;;;;;23.08;34.02;99839.53;105954;1275;108950;-72
2022/09/25 09:12:43;;;;;;;13.30;11.90;;;;;;;22.71;34.55;99834.41;105944;1274;138461;-72
2022/09/25 09:15:28;;;;;;;14.40;12.10;;;;;;;22.67;34.97;99832.84;106114;1274;96940;-72
2022/09/25 09:18:05;;;;;;;15.70;10.50;;;;;;;22.82;35.22;99831.83;105954;1274;137775;-71
2022/09/25 09:20:44;;;;;;;12.80;10.50;;;;;;;23.03;34.78;99828.37;106119;1274;107746;-72
2022/09/25 09:23:20;;;;;;;12.30;10.50;;;;;;;23.20;35.23;99822.52;107547;1274;137986;-72
2022/09/25 09:26:01;;;;;;;13.90;9.80;;;;;;;23.52;35.43;99822.29;106281;1274;96579;-72
2022/09/25 09:29:01;;;;;;;12.70;9.60;;;;;;;23.92;35.25;99817.95;106055;1274;96663;-70
2022/09/25 09:31:44;;;;;;;13.10;9.70;;;;;;;24.37;34.67;99815.48;106027;1274;110837;-71
2022/09/25 09:34:50;;;;;;;10.50;9.00;;;;;;;24.44;33.80;99810.39;107619;1274;108918;-71
2022/09/25 09:37:49;;;;;;;11.10;8.90;;;;;;;24.63;34.52;99808.98;107582;1274;108810;-70
2022/09/25 09:40:32;;;;;;;13.10;10.30;;;;;;;25.01;34.25;99804.90;107606;1274;94922;-71
2022/09/25 09:43:15;;;;;;;11.60;9.70;;;;;;;25.22;33.64;99804.59;107689;1274;94693;-72
2022/09/25 09:45:54;;;;;;;10.60;8.90;;;;;;;25.24;33.70;99801.83;107681;1274;111197;-72
2022/09/25 09:48:33;;;;;;;8.70;7.70;;;;;;;25.34;33.81;99796.26;107530;1274;138494;-71
2022/09/25 09:51:11;;;;;;;10.10;8.10;;;;;;;25.45;33.11;99794.06;107625;1274;107773;-71
2022/09/25 09:53:51;;;;;;;13.90;9.70;;;;;;;25.51;33.66;99790.58;105917;1274;137602;-71
2022/09/25 09:56:27;;;;;;;10.10;8.40;;;;;;;25.56;32.58;99789.77;106241;1274;96384;-69
2022/09/25 09:59:02;;;;;;;9.20;8.10;;;;;;;25.39;32.94;99777.81;105904;1274;137638;-72
2022/09/25 10:01:38;;;;;;;11.50;8.00;;;;;;;25.26;32.63;99774.64;106077;1274;107264;-72
2022/09/25 10:04:16;;;;;;;10.20;7.90;;;;;;;24.94;32.40;99766.11;106103;1274;108907;-71
2022/09/25 10:06:51;;;;;;;9.40;7.10;;;;;;;24.48;32.47;99763.67;106029;1274;137912;-72
2022/09/25 10:09:25;;;;;;;8.80;7.10;;;;;;;24.14;32.98;99758.64;106167;1274;96205;-71
2022/09/25 10:12:01;;;;;;;8.10;7.10;;;;;;;23.93;33.26;99759.94;105979;1274;137336;-72
2022/09/25 10:14:41;;;;;;;9.00;7.30;;;;;;;23.69;33.23;99762.29;106159;1274;108898;-72
2022/09/25 10:17:14;;;;;;;10.30;7.30;;;;;;;23.36;33.63;99761.08;106026;1274;137819;-72
2022/09/25 10:19:52;;;;;;;8.80;6.20;;;;;;;23.23;34.29;99763.84;106073;1274;96475;-71
2022/09/25 10:22:28;;;;;;;7.50;6.20;;;;;;;23.11;33.47;99767.10;106111;1274;96601;-70
2022/09/25 10:25:01;;;;;;;8.00;6.50;;;;;;;22.83;33.51;99762.92;106001;1274;111200;-70
2022/09/25 10:27:36;;;;;;;7.80;6.60;;;;;;;22.60;33.67;99757.89;106098;1274;109180;-69
2022/09/25 10:30:17;;;;;;;8.90;6.30;;;;;;;22.47;33.68;99764.23;105935;1274;137438;-71
2022/09/25 10:32:56;;;;;;;10.20;7.40;;;;;;;22.19;33.65;99763.00;105959;1274;97884;-71
2022/09/25 10:35:40;;;;;;;9.80;7.50;;;;;;;21.93;34.29;99752.84;107485;1274;137614;-72
2022/09/25 10:38:31;;;;;;;8.60;7.50;;;;;;;21.79;35.07;99751.64;106138;1274;111310;-73
2022/09/25 10:41:06;;;;;;;9.30;6.80;;;;;;;21.91;35.73;99750.40;105996;1273;137585;-71
2022/09/25 10:43:52;;;;;;;9.10;6.60;;;;;;;22.05;34.70;99754.30;106025;1273;109238;-72
2022/09/25 10:52:44;;;;;;;8.70;6.40;;;;;;;21.43;33.66;99752.27;105822;1277;109853;-72
2022/09/25 10:55:27;;;;;;;7.60;6.10;;;;;;;21.23;34.32;99745.77;105758;1277;107959;-70
2022/09/25 10:58:11;;;;;;;11.00;5.90;;;;;;;21.15;34.51;99743.59;105780;1277;109071;-71
2022/09/25 11:00:55;;;;;;;7.30;5.90;;;;;;;21.06;34.56;99739.58;105740;1277;138105;-72
2022/09/25 11:03:33;;;;;;;8.90;6.40;;;;;;;20.99;34.87;99735.91;105866;1277;96489;-72
2022/09/25 11:06:09;;;;;;;6.50;5.70;;;;;;;21.01;35.09;99732.08;107214;1277;137501;-72
2022/09/25 11:08:42;;;;;;;7.90;6.90;;;;;;;21.05;35.19;99727.17;107282;1277;108831;-70
2022/09/25 11:11:20;;;;;;;7.60;5.90;;;;;;;21.06;35.06;99725.23;107176;1277;138206;-72
2022/09/25 11:13:57;;;;;;;7.00;6.00;;;;;;;20.96;34.96;99719.17;107326;1277;94979;-72
2022/09/25 11:16:46;;;;;;;7.20;5.50;;;;;;;20.99;35.27;99712.06;107299;1277;94766;-72
2022/09/25 11:19:24;;;;;;;7.10;5.70;;;;;;;21.04;35.26;99715.00;107328;1277;111221;-72
2022/09/25 11:22:06;;;;;;;11.10;5.80;;;;;;;21.03;34.71;99722.73;107393;1277;105809;-71
2022/09/25 11:24:50;;;;;;;6.50;5.60;;;;;;;20.94;35.14;99717.13;107339;1273;138031;-72
2022/09/25 11:27:30;;;;;;;7.60;4.80;;;;;;;20.96;35.42;99705.59;107618;1273;94860;-71
2022/09/25 11:30:06;;;;;;;6.10;5.10;;;;;;;21.04;35.11;99697.84;107073;1273;137762;-71
2022/09/25 11:32:45;;;;;;;7.90;6.20;;;;;;;21.20;35.24;99694.90;106053;1273;111641;-72
2022/09/25 11:35:48;;;;;;;9.90;6.60;;;;;;;21.24;34.81;99699.55;105808;1274;138457;-70
2022/09/25 11:41:28;;;;;;;8.60;6.30;;;;;;;21.08;35.19;99693.84;105997;1273;139570;-73
2022/09/25 11:44:11;;;;;;;7.80;6.40;;;;;;;21.09;35.61;99693.54;105996;1274;96582;-72
2022/09/25 11:46:53;;;;;;;9.50;6.90;;;;;;;21.23;35.56;99700.90;105885;1274;137384;-74
2022/09/25 11:49:30;;;;;;;8.70;6.90;;;;;;;21.19;35.15;99698.41;106530;1274;108962;-71
2022/09/25 11:52:15;;;;;;;;;;;;;;;21.07;35.68;99695.99;106132;1273;107786;-70
2022/09/25 11:55:20;;;;;;;8.60;6.90;;;;;;;21.05;35.96;99698.66;105933;1273;123957;-74
2022/09/25 11:58:01;;;;;;;8.90;6.30;;;;;;;21.11;36.41;99695.84;105884;1276;96535;-73
2022/09/25 12:00:40;;;;;;;6.60;5.90;;;;;;;21.34;36.60;99689.65;105936;1273;137241;-74
2022/09/25 12:03:25;;;;;;;9.30;6.50;;;;;;;21.58;36.28;99684.23;105972;1273;108935;-72
2022/09/25 12:06:27;;;;;;;8.80;6.00;;;;;;;21.58;35.20;99682.48;105868;1274;137430;-71
2022/09/25 12:09:14;;;;;;;8.10;6.00;;;;;;;21.41;35.17;99680.92;106040;1274;96502;-77
2022/09/25 12:11:55;;;;;;;7.00;6.10;;;;;;;21.15;34.91;99680.38;106030;1273;137422;-70
2022/09/25 12:14:35;;;;;;;7.60;5.80;;;;;;;20.89;35.59;99674.77;107564;1274;109838;-70
2022/09/25 12:17:14;;;;;;;9.70;5.90;;;;;;;20.81;35.77;99676.14;107548;1273;137582;-73
2022/09/25 12:19:55;;;;;;;8.80;5.80;;;;;;;20.78;35.72;99674.29;107632;1273;109222;-76